sensor_id;sensor_type;location;lat;lon;timestamp;pressure;altitude;pressure_sealevel;temperature;humidity
36748;BME280;22716;51.556;5.080;2023-05-08T00:00:28;101331.59;;;16.07;100.00
36748;BME280;22716;51.556;5.080;2023-05-08T00:02:58;101335.06;;;16.09;100.00
36748;BME280;22716;51.556;5.080;2023-05-08T00:05:28;101322.88;;;16.03;100.00
36748;BME280;22716;51.556;5.080;2023-05-08T00:07:57;101329.88;;;16.06;100.00
36748;BME280;22716;51.556;5.080;2023-05-08T00:10:29;101320.28;;;16.02;100.00
36748;BME280;22716;51.556;5.080;2023-05-08T00:13:00;101329.72;;;16.12;100.00
36748;BME280;22716;51.556;5.080;2023-05-08T00:15:29;101325.28;;;16.12;100.00
36748;BME280;22716;51.556;5.080;2023-05-08T00:17:59;101328.88;;;16.10;100.00
36748;BME280;22716;51.556;5.080;2023-05-08T00:20:28;101328.03;;;16.09;100.00
36748;BME280;22716;51.556;5.080;2023-05-08T00:22:57;101316.84;;;15.98;100.00
36748;BME280;22716;51.556;5.080;2023-05-08T00:25:26;101326.56;;;15.98;100.00
36748;BME280;22716;51.556;5.080;2023-05-08T00:27:56;101324.84;;;15.97;100.00
36748;BME280;22716;51.556;5.080;2023-05-08T00:30:27;101321.34;;;15.95;100.00
36748;BME280;22716;51.556;5.080;2023-05-08T00:32:56;101324.19;;;15.87;100.00
36748;BME280;22716;51.556;5.080;2023-05-08T00:35:26;101327.63;;;15.91;100.00
36748;BME280;22716;51.556;5.080;2023-05-08T00:37:56;101332.84;;;15.92;100.00
36748;BME280;22716;51.556;5.080;2023-05-08T00:40:25;101315.25;;;15.91;100.00
36748;BME280;22716;51.556;5.080;2023-05-08T00:42:54;101323.13;;;15.94;100.00
36748;BME280;22716;51.556;5.080;2023-05-08T00:45:30;101326.59;;;15.96;100.00
36748;BME280;22716;51.556;5.080;2023-05-08T00:48:00;101329.25;;;15.96;100.00
36748;BME280;22716;51.556;5.080;2023-05-08T00:50:30;101305.69;;;15.87;100.00
36748;BME280;22716;51.556;5.080;2023-05-08T00:53:02;101322.13;;;15.98;100.00
36748;BME280;22716;51.556;5.080;2023-05-08T00:55:32;101318.69;;;15.96;100.00
36748;BME280;22716;51.556;5.080;2023-05-08T00:58:01;101326.53;;;15.99;100.00
36748;BME280;22716;51.556;5.080;2023-05-08T01:00:33;101324.84;;;15.95;100.00
36748;BME280;22716;51.556;5.080;2023-05-08T01:03:03;101323.13;;;15.94;100.00
36748;BME280;22716;51.556;5.080;2023-05-08T01:05:33;101326.56;;;15.98;100.00
36748;BME280;22716;51.556;5.080;2023-05-08T01:08:03;101327.44;;;15.98;100.00
36748;BME280;22716;51.556;5.080;2023-05-08T01:10:47;101320.38;;;15.99;100.00
36748;BME280;22716;51.556;5.080;2023-05-08T01:13:29;101315.09;;;15.97;100.00
36748;BME280;22716;51.556;5.080;2023-05-08T01:16:12;101319.56;;;15.95;100.00
36748;BME280;22716;51.556;5.080;2023-05-08T01:18:49;101318.69;;;15.95;100.00
36748;BME280;22716;51.556;5.080;2023-05-08T01:21:26;101317.81;;;15.94;100.00
36748;BME280;22716;51.556;5.080;2023-05-08T01:27:24;101306.66;;;15.83;100.00
36748;BME280;22716;51.556;5.080;2023-05-08T01:30:20;101310.91;;;15.90;100.00
36748;BME280;22716;51.556;5.080;2023-05-08T01:32:58;101305.84;;;15.81;100.00
36748;BME280;22716;51.556;5.080;2023-05-08T01:35:36;101316.34;;;15.83;100.00
36748;BME280;22716;51.556;5.080;2023-05-08T01:38:13;101317.22;;;15.83;100.00
36748;BME280;22716;51.556;5.080;2023-05-08T01:40:50;101320.63;;;15.88;100.00
36748;BME280;22716;51.556;5.080;2023-05-08T01:43:25;101316.28;;;15.86;100.00
36748;BME280;22716;51.556;5.080;2023-05-08T01:46:04;101305.78;;;15.83;100.00
36748;BME280;22716;51.556;5.080;2023-05-08T01:48:41;101322.50;;;15.83;100.00
36748;BME280;22716;51.556;5.080;2023-05-08T01:51:17;101324.34;;;15.81;100.00
36748;BME280;22716;51.556;5.080;2023-05-08T01:53:54;101330.50;;;15.80;100.00
36748;BME280;22716;51.556;5.080;2023-05-08T01:56:27;101330.50;;;15.80;100.00
36748;BME280;22716;51.556;5.080;2023-05-08T01:58:58;101334.97;;;15.78;100.00
36748;BME280;22716;51.556;5.080;2023-05-08T02:01:31;101334.97;;;15.78;100.00
36748;BME280;22716;51.556;5.080;2023-05-08T02:04:05;101331.59;;;15.73;100.00
36748;BME280;22716;51.556;5.080;2023-05-08T02:06:36;101326.31;;;15.72;100.00
36748;BME280;22716;51.556;5.080;2023-05-08T02:09:07;101341.22;;;15.76;100.00
36748;BME280;22716;51.556;5.080;2023-05-08T02:11:38;101333.38;;;15.71;100.00
36748;BME280;22716;51.556;5.080;2023-05-08T02:14:09;101336.97;;;15.68;100.00
36748;BME280;22716;51.556;5.080;2023-05-08T02:16:41;101343.19;;;15.66;100.00
36748;BME280;22716;51.556;5.080;2023-05-08T02:19:14;101338.91;;;15.60;100.00
36748;BME280;22716;51.556;5.080;2023-05-08T02:21:45;101344.94;;;15.67;100.00
36748;BME280;22716;51.556;5.080;2023-05-08T02:24:16;101337.97;;;15.63;100.00
36748;BME280;22716;51.556;5.080;2023-05-08T02:26:46;101344.06;;;15.66;100.00
36748;BME280;22716;51.556;5.080;2023-05-08T02:29:16;101347.59;;;15.65;100.00
36748;BME280;22716;51.556;5.080;2023-05-08T02:31:47;101344.19;;;15.60;100.00
36748;BME280;22716;51.556;5.080;2023-05-08T02:34:20;101346.88;;;15.59;100.00
36748;BME280;22716;51.556;5.080;2023-05-08T02:36:52;101347.84;;;15.55;100.00
36748;BME280;22716;51.556;5.080;2023-05-08T02:39:25;101356.66;;;15.54;100.00
36748;BME280;22716;51.556;5.080;2023-05-08T02:41:59;101354.16;;;15.49;100.00
36748;BME280;22716;51.556;5.080;2023-05-08T02:44:29;101347.16;;;15.47;100.00
36748;BME280;22716;51.556;5.080;2023-05-08T02:47:14;101346.25;;;15.46;100.00
36748;BME280;22716;51.556;5.080;2023-05-08T02:49:53;101338.41;;;15.42;100.00
36748;BME280;22716;51.556;5.080;2023-05-08T02:52:27;101338.50;;;15.39;100.00
36748;BME280;22716;51.556;5.080;2023-05-08T02:55:00;101335.91;;;15.37;100.00
36748;BME280;22716;51.556;5.080;2023-05-08T02:57:36;101341.19;;;15.37;100.00
36748;BME280;22716;51.556;5.080;2023-05-08T03:00:13;101335.03;;;15.35;100.00
36748;BME280;22716;51.556;5.080;2023-05-08T03:02:47;101332.44;;;15.34;100.00
36748;BME280;22716;51.556;5.080;2023-05-08T03:05:27;101320.31;;;15.25;100.00
36748;BME280;22716;51.556;5.080;2023-05-08T03:08:01;101327.31;;;15.28;100.00
36748;BME280;22716;51.556;5.080;2023-05-08T03:10:34;101326.38;;;15.30;100.00
36748;BME280;22716;51.556;5.080;2023-05-08T03:13:05;101317.63;;;15.28;100.00
36748;BME280;22716;51.556;5.080;2023-05-08T03:15:43;101321.00;;;15.35;100.00
36748;BME280;22716;51.556;5.080;2023-05-08T03:18:15;101316.69;;;15.31;100.00
36748;BME280;22716;51.556;5.080;2023-05-08T03:20:51;101325.34;;;15.37;100.00
36748;BME280;22716;51.556;5.080;2023-05-08T03:23:23;101326.16;;;15.39;100.00
36748;BME280;22716;51.556;5.080;2023-05-08T03:25:56;101326.16;;;15.39;100.00
36748;BME280;22716;51.556;5.080;2023-05-08T03:28:26;101320.94;;;15.36;100.00
36748;BME280;22716;51.556;5.080;2023-05-08T03:30:58;101316.66;;;15.32;100.00
36748;BME280;22716;51.556;5.080;2023-05-08T03:33:29;101328.91;;;15.35;100.00
36748;BME280;22716;51.556;5.080;2023-05-08T03:36:01;101333.31;;;15.34;100.00
36748;BME280;22716;51.556;5.080;2023-05-08T03:38:31;101322.91;;;15.28;100.00
36748;BME280;22716;51.556;5.080;2023-05-08T03:40:59;101328.13;;;15.31;100.00
36748;BME280;22716;51.556;5.080;2023-05-08T03:43:30;101325.56;;;15.27;100.00
36748;BME280;22716;51.556;5.080;2023-05-08T03:45:59;101325.78;;;15.18;100.00
36748;BME280;22716;51.556;5.080;2023-05-08T03:48:30;101328.56;;;15.11;100.00
36748;BME280;22716;51.556;5.080;2023-05-08T03:51:04;101336.47;;;15.11;100.00
36748;BME280;22716;51.556;5.080;2023-05-08T03:53:33;101328.63;;;15.08;100.00
36748;BME280;22716;51.556;5.080;2023-05-08T03:56:03;101338.31;;;15.06;100.00
36748;BME280;22716;51.556;5.080;2023-05-08T03:58:40;101317.38;;;14.99;100.00
36748;BME280;22716;51.556;5.080;2023-05-08T04:01:16;101328.75;;;15.01;100.00
36748;BME280;22716;51.556;5.080;2023-05-08T04:03:53;101334.91;;;15.01;100.00
36748;BME280;22716;51.556;5.080;2023-05-08T04:06:29;101336.78;;;14.96;100.00
36748;BME280;22716;51.556;5.080;2023-05-08T04:09:04;101330.63;;;14.96;100.00
36748;BME280;22716;51.556;5.080;2023-05-08T04:11:41;101330.59;;;14.97;100.00
36748;BME280;22716;51.556;5.080;2023-05-08T04:14:16;101340.16;;;15.03;100.00
36748;BME280;22716;51.556;5.080;2023-05-08T04:16:50;101342.78;;;15.03;100.00
36748;BME280;22716;51.556;5.080;2023-05-08T04:19:22;101342.84;;;15.01;100.00
36748;BME280;22716;51.556;5.080;2023-05-08T04:21:58;101344.53;;;15.04;100.00
36748;BME280;22716;51.556;5.080;2023-05-08T04:24:34;101341.06;;;15.02;100.00
36748;BME280;22716;51.556;5.080;2023-05-08T04:27:06;101335.81;;;15.00;100.00
36748;BME280;22716;51.556;5.080;2023-05-08T04:29:37;101344.66;;;14.99;100.00
36748;BME280;22716;51.556;5.080;2023-05-08T04:32:07;101342.88;;;15.00;100.00
36748;BME280;22716;51.556;5.080;2023-05-08T04:34:36;101344.69;;;14.96;100.00
36748;BME280;22716;51.556;5.080;2023-05-08T04:37:08;101343.78;;;14.99;100.00
36748;BME280;22716;51.556;5.080;2023-05-08T04:39:50;101356.13;;;14.97;100.00
36748;BME280;22716;51.556;5.080;2023-05-08T04:42:20;101352.69;;;14.93;100.00
36748;BME280;22716;51.556;5.080;2023-05-08T04:44:50;101360.59;;;14.92;100.00
36748;BME280;22716;51.556;5.080;2023-05-08T04:47:19;101360.66;;;14.90;100.00
36748;BME280;22716;51.556;5.080;2023-05-08T04:49:48;101340.69;;;14.77;100.00
36748;BME280;22716;51.556;5.080;2023-05-08T04:52:20;101360.78;;;14.83;100.00
36748;BME280;22716;51.556;5.080;2023-05-08T04:54:49;101356.38;;;14.83;100.00
36748;BME280;22716;51.556;5.080;2023-05-08T04:57:18;101362.53;;;14.85;100.00
36748;BME280;22716;51.556;5.080;2023-05-08T04:59:47;101361.59;;;14.86;100.00
36748;BME280;22716;51.556;5.080;2023-05-08T05:02:16;101352.91;;;14.81;100.00
36748;BME280;22716;51.556;5.080;2023-05-08T05:04:45;101369.56;;;14.85;100.00
36748;BME280;22716;51.556;5.080;2023-05-08T05:07:15;101370.44;;;14.85;100.00
36748;BME280;22716;51.556;5.080;2023-05-08T05:09:48;101373.91;;;14.87;100.00
36748;BME280;22716;51.556;5.080;2023-05-08T05:12:17;101380.13;;;14.85;100.00
36748;BME280;22716;51.556;5.080;2023-05-08T05:14:46;101384.56;;;14.81;100.00
36748;BME280;22716;51.556;5.080;2023-05-08T05:17:15;101380.13;;;14.85;100.00
36748;BME280;22716;51.556;5.080;2023-05-08T05:19:44;101387.94;;;14.89;100.00
36748;BME280;22716;51.556;5.080;2023-05-08T05:22:14;101384.47;;;14.87;100.00
36748;BME280;22716;51.556;5.080;2023-05-08T05:24:42;101388.81;;;14.90;100.00
36748;BME280;22716;51.556;5.080;2023-05-08T05:27:15;101394.91;;;14.92;100.00
36748;BME280;22716;51.556;5.080;2023-05-08T05:29:44;101393.97;;;14.96;100.00
36748;BME280;22716;51.556;5.080;2023-05-08T05:32:15;101381.72;;;14.92;100.00
36748;BME280;22716;51.556;5.080;2023-05-08T05:34:44;101389.44;;;15.02;100.00
36748;BME280;22716;51.556;5.080;2023-05-08T05:37:13;101393.78;;;15.05;100.00
36748;BME280;22716;51.556;5.080;2023-05-08T05:39:42;101394.59;;;15.08;100.00
36748;BME280;22716;51.556;5.080;2023-05-08T05:42:11;101398.88;;;15.14;100.00
36748;BME280;22716;51.556;5.080;2023-05-08T05:44:43;101406.75;;;15.15;100.00
36748;BME280;22716;51.556;5.080;2023-05-08T05:47:12;101401.59;;;15.11;100.00
36748;BME280;22716;51.556;5.080;2023-05-08T05:49:41;101411.97;;;15.19;100.00
36748;BME280;22716;51.556;5.080;2023-05-08T05:52:11;101404.94;;;15.19;100.00
36748;BME280;22716;51.556;5.080;2023-05-08T05:54:42;101414.53;;;15.23;100.00
36748;BME280;22716;51.556;5.080;2023-05-08T05:57:11;101405.75;;;15.23;100.00
36748;BME280;22716;51.556;5.080;2023-05-08T05:59:44;101414.41;;;15.29;100.00
36748;BME280;22716;51.556;5.080;2023-05-08T06:02:14;101415.97;;;15.38;100.00
36748;BME280;22716;51.556;5.080;2023-05-08T06:04:45;101419.34;;;15.44;100.00
36748;BME280;22716;51.556;5.080;2023-05-08T06:07:15;101402.59;;;15.45;100.00
36748;BME280;22716;51.556;5.080;2023-05-08T06:09:45;101411.25;;;15.55;100.00
36748;BME280;22716;51.556;5.080;2023-05-08T06:12:16;101420.72;;;15.63;100.00
36748;BME280;22716;51.556;5.080;2023-05-08T06:14:50;101421.59;;;15.64;100.00
36748;BME280;22716;51.556;5.080;2023-05-08T06:17:19;101424.25;;;15.64;100.00
36748;BME280;22716;51.556;5.080;2023-05-08T06:19:48;101421.59;;;15.64;100.00
36748;BME280;22716;51.556;5.080;2023-05-08T06:22:21;101418.75;;;15.73;100.00
36748;BME280;22716;51.556;5.080;2023-05-08T06:24:51;101414.38;;;15.72;100.00
36748;BME280;22716;51.556;5.080;2023-05-08T06:27:20;101419.53;;;15.78;100.00
36748;BME280;22716;51.556;5.080;2023-05-08T06:29:53;101427.31;;;15.83;100.00
36748;BME280;22716;51.556;5.080;2023-05-08T06:32:22;101426.38;;;15.85;100.00
36748;BME280;22716;51.556;5.080;2023-05-08T06:34:51;101434.31;;;15.85;100.00
36748;BME280;22716;51.556;5.080;2023-05-08T06:37:19;101432.53;;;15.86;100.00
36748;BME280;22716;51.556;5.080;2023-05-08T06:39:48;101424.63;;;15.86;100.00
36748;BME280;22716;51.556;5.080;2023-05-08T06:42:18;101438.63;;;15.91;100.00
36748;BME280;22716;51.556;5.080;2023-05-08T06:44:47;101435.97;;;15.91;100.00
36748;BME280;22716;51.556;5.080;2023-05-08T06:47:21;101442.88;;;15.96;100.00
36748;BME280;22716;51.556;5.080;2023-05-08T06:49:49;101443.75;;;15.97;100.00
36748;BME280;22716;51.556;5.080;2023-05-08T06:52:18;101446.34;;;15.98;100.00
36748;BME280;22716;51.556;5.080;2023-05-08T06:54:50;101438.44;;;15.98;100.00
36748;BME280;22716;51.556;5.080;2023-05-08T06:57:19;101430.56;;;15.95;100.00
36748;BME280;22716;51.556;5.080;2023-05-08T06:59:51;101433.94;;;16.02;100.00
36748;BME280;22716;51.556;5.080;2023-05-08T07:02:23;101429.47;;;16.05;100.00
36748;BME280;22716;51.556;5.080;2023-05-08T07:04:52;101433.69;;;16.12;100.00
36748;BME280;22716;51.556;5.080;2023-05-08T07:07:21;101430.06;;;16.16;100.00
36748;BME280;22716;51.556;5.080;2023-05-08T07:09:50;101433.44;;;16.23;100.00
36748;BME280;22716;51.556;5.080;2023-05-08T07:12:20;101434.00;;;16.36;100.00
36748;BME280;22716;51.556;5.080;2023-05-08T07:14:49;101433.75;;;16.45;100.00
36748;BME280;22716;51.556;5.080;2023-05-08T07:17:18;101441.53;;;16.52;100.00
36748;BME280;22716;51.556;5.080;2023-05-08T07:19:51;101432.53;;;16.59;100.00
36748;BME280;22716;51.556;5.080;2023-05-08T07:22:20;101430.59;;;16.66;100.00
36748;BME280;22716;51.556;5.080;2023-05-08T07:24:49;101436.72;;;16.68;100.00
36748;BME280;22716;51.556;5.080;2023-05-08T07:27:18;101418.50;;;16.57;100.00
36748;BME280;22716;51.556;5.080;2023-05-08T07:29:46;101431.50;;;16.65;100.00
36748;BME280;22716;51.556;5.080;2023-05-08T07:32:16;101435.84;;;16.67;100.00
36748;BME280;22716;51.556;5.080;2023-05-08T07:34:45;101427.09;;;16.65;100.00
36748;BME280;22716;51.556;5.080;2023-05-08T07:37:17;101428.94;;;16.62;100.00
36748;BME280;22716;51.556;5.080;2023-05-08T07:39:46;101432.44;;;16.64;100.00
36748;BME280;22716;51.556;5.080;2023-05-08T07:42:15;101429.00;;;16.60;100.00
36748;BME280;22716;51.556;5.080;2023-05-08T07:44:46;101436.06;;;16.60;100.00
36748;BME280;22716;51.556;5.080;2023-05-08T07:47:16;101436.78;;;16.65;100.00
36748;BME280;22716;51.556;5.080;2023-05-08T07:49:44;101437.56;;;16.70;100.00
36748;BME280;22716;51.556;5.080;2023-05-08T07:52:16;101440.16;;;16.71;100.00
36748;BME280;22716;51.556;5.080;2023-05-08T07:54:45;101443.44;;;16.81;100.00
36748;BME280;22716;51.556;5.080;2023-05-08T07:57:14;101432.63;;;16.89;100.00
36748;BME280;22716;51.556;5.080;2023-05-08T07:59:43;101432.38;;;16.99;100.00
36748;BME280;22716;51.556;5.080;2023-05-08T08:02:12;101434.06;;;17.00;100.00
36748;BME280;22716;51.556;5.080;2023-05-08T08:04:41;101434.94;;;17.02;100.00
36748;BME280;22716;51.556;5.080;2023-05-08T08:07:11;101426.22;;;16.97;100.00
36748;BME280;22716;51.556;5.080;2023-05-08T08:09:44;101434.06;;;17.00;100.00
36748;BME280;22716;51.556;5.080;2023-05-08T08:12:13;101427.72;;;17.07;100.00
36748;BME280;22716;51.556;5.080;2023-05-08T08:14:43;101435.50;;;17.12;100.00
36748;BME280;22716;51.556;5.080;2023-05-08T08:17:13;101426.34;;;17.23;100.00
36748;BME280;22716;51.556;5.080;2023-05-08T08:19:41;101426.19;;;17.29;100.00
36748;BME280;22716;51.556;5.080;2023-05-08T08:22:10;101433.84;;;17.40;100.00
36748;BME280;22716;51.556;5.080;2023-05-08T08:24:42;101427.03;;;17.31;100.00
36748;BME280;22716;51.556;5.080;2023-05-08T08:27:13;101433.88;;;17.38;100.00
36748;BME280;22716;51.556;5.080;2023-05-08T08:29:42;101440.50;;;17.55;100.00
36748;BME280;22716;51.556;5.080;2023-05-08T08:32:11;101441.94;;;17.65;100.00
36748;BME280;22716;51.556;5.080;2023-05-08T08:34:40;101436.53;;;17.69;100.00
36748;BME280;22716;51.556;5.080;2023-05-08T08:37:08;101437.41;;;17.70;100.00
36748;BME280;22716;51.556;5.080;2023-05-08T08:39:38;101444.22;;;17.77;100.00
36748;BME280;22716;51.556;5.080;2023-05-08T08:42:09;101445.00;;;17.80;100.00
36748;BME280;22716;51.556;5.080;2023-05-08T08:44:38;101436.16;;;17.81;100.00
36748;BME280;22716;51.556;5.080;2023-05-08T08:47:10;101436.19;;;17.80;100.00
36748;BME280;22716;51.556;5.080;2023-05-08T08:49:42;101437.00;;;17.82;100.00
36748;BME280;22716;51.556;5.080;2023-05-08T08:52:21;101437.16;;;17.77;100.00
36748;BME280;22716;51.556;5.080;2023-05-08T08:54:54;101436.28;;;17.77;100.00
36748;BME280;22716;51.556;5.080;2023-05-08T08:57:27;101439.97;;;17.71;100.00
36748;BME280;22716;51.556;5.080;2023-05-08T09:00:02;101440.56;;;17.81;100.00
36748;BME280;22716;51.556;5.080;2023-05-08T09:02:31;101438.47;;;17.92;100.00
36748;BME280;22716;51.556;5.080;2023-05-08T09:05:02;101440.00;;;17.99;100.00
36748;BME280;22716;51.556;5.080;2023-05-08T09:07:31;101434.41;;;18.08;100.00
36748;BME280;22716;51.556;5.080;2023-05-08T09:10:01;101447.31;;;18.19;100.00
36748;BME280;22716;51.556;5.080;2023-05-08T09:12:36;101432.31;;;18.18;100.00
36748;BME280;22716;51.556;5.080;2023-05-08T09:15:06;101436.81;;;18.16;100.00
36748;BME280;22716;51.556;5.080;2023-05-08T09:17:35;101432.19;;;18.22;100.00
36748;BME280;22716;51.556;5.080;2023-05-08T09:20:08;101443.13;;;18.38;100.00
36748;BME280;22716;51.556;5.080;2023-05-08T09:22:37;101446.56;;;18.41;100.00
36748;BME280;22716;51.556;5.080;2023-05-08T09:25:08;101442.94;;;18.44;100.00
36748;BME280;22716;51.556;5.080;2023-05-08T09:27:40;101441.13;;;18.46;100.00
36748;BME280;22716;51.556;5.080;2023-05-08T09:30:10;101441.00;;;18.51;100.00
36748;BME280;22716;51.556;5.080;2023-05-08T09:32:41;101418.66;;;18.30;100.00
36748;BME280;22716;51.556;5.080;2023-05-08T09:35:11;101435.44;;;18.30;100.00
36748;BME280;22716;51.556;5.080;2023-05-08T09:37:41;101437.41;;;18.25;100.00
36748;BME280;22716;51.556;5.080;2023-05-08T09:40:14;101442.59;;;18.28;100.00
36748;BME280;22716;51.556;5.080;2023-05-08T09:42:47;101443.44;;;18.29;100.00
36748;BME280;22716;51.556;5.080;2023-05-08T09:45:27;101442.41;;;18.34;100.00
36748;BME280;22716;51.556;5.080;2023-05-08T09:47:57;101439.28;;;18.48;100.00
36748;BME280;22716;51.556;5.080;2023-05-08T09:50:26;101442.66;;;18.53;100.00
36748;BME280;22716;51.556;5.080;2023-05-08T09:52:56;101442.34;;;18.62;100.00
36748;BME280;22716;51.556;5.080;2023-05-08T09:55:25;101438.78;;;18.63;100.00
36748;BME280;22716;51.556;5.080;2023-05-08T09:57:58;101443.13;;;18.66;100.00
36748;BME280;22716;51.556;5.080;2023-05-08T10:00:28;101439.34;;;18.73;100.00
36748;BME280;22716;51.556;5.080;2023-05-08T10:02:58;101442.53;;;18.82;100.00
36748;BME280;22716;51.556;5.080;2023-05-08T10:05:29;101452.94;;;18.88;100.00
36748;BME280;22716;51.556;5.080;2023-05-08T10:08:18;101440.03;;;19.02;100.00
36748;BME280;22716;51.556;5.080;2023-05-08T10:10:47;101443.19;;;19.14;100.00
36748;BME280;22716;51.556;5.080;2023-05-08T10:13:19;101442.22;;;19.16;100.00
36748;BME280;22716;51.556;5.080;2023-05-08T10:15:53;101455.22;;;19.24;100.00
36748;BME280;22716;51.556;5.080;2023-05-08T10:18:28;101440.94;;;19.26;100.00
36748;BME280;22716;51.556;5.080;2023-05-08T10:21:01;101443.56;;;19.28;100.00
36748;BME280;22716;51.556;5.080;2023-05-08T10:23:35;101443.78;;;19.22;100.00
36748;BME280;22716;51.556;5.080;2023-05-08T10:26:09;101444.44;;;19.28;100.00
36748;BME280;22716;51.556;5.080;2023-05-08T10:28:43;101445.88;;;19.37;100.00
36748;BME280;22716;51.556;5.080;2023-05-08T10:31:16;101440.19;;;19.47;100.00
36748;BME280;22716;51.556;5.080;2023-05-08T10:33:48;101438.84;;;19.59;100.00
36748;BME280;22716;51.556;5.080;2023-05-08T10:36:19;101443.78;;;19.70;100.00
36748;BME280;22716;51.556;5.080;2023-05-08T10:38:51;101439.19;;;19.73;100.00
36748;BME280;22716;51.556;5.080;2023-05-08T10:41:21;101441.03;;;19.71;100.00
36748;BME280;22716;51.556;5.080;2023-05-08T10:43:53;101433.25;;;19.67;100.00
36748;BME280;22716;51.556;5.080;2023-05-08T10:46:29;101439.25;;;19.72;100.00
36748;BME280;22716;51.556;5.080;2023-05-08T10:49:08;101434.06;;;19.69;100.00
36748;BME280;22716;51.556;5.080;2023-05-08T10:51:45;101437.16;;;19.80;100.00
36748;BME280;22716;51.556;5.080;2023-05-08T10:54:33;101437.84;;;19.85;100.00
36748;BME280;22716;51.556;5.080;2023-05-08T10:57:08;101435.53;;;19.99;100.00
36748;BME280;22716;51.556;5.080;2023-05-08T10:59:44;101426.44;;;20.04;100.00
36748;BME280;22716;51.556;5.080;2023-05-08T11:02:13;101434.97;;;20.12;100.00
36748;BME280;22716;51.556;5.080;2023-05-08T11:04:43;101415.09;;;19.99;100.00
36748;BME280;22716;51.556;5.080;2023-05-08T11:07:12;101432.28;;;20.12;100.00
36748;BME280;22716;51.556;5.080;2023-05-08T11:09:45;101426.78;;;20.17;100.00
36748;BME280;22716;51.556;5.080;2023-05-08T11:12:20;101431.84;;;20.23;100.00
36748;BME280;22716;51.556;5.080;2023-05-08T11:15:02;101427.31;;;20.27;100.00
36748;BME280;22716;51.556;5.080;2023-05-08T11:17:32;101420.81;;;20.34;100.00
36748;BME280;22716;51.556;5.080;2023-05-08T11:20:02;101415.75;;;20.28;100.00
36748;BME280;22716;51.556;5.080;2023-05-08T11:22:33;101417.31;;;20.32;100.00
36748;BME280;22716;51.556;5.080;2023-05-08T11:25:06;101418.44;;;20.26;100.00
36748;BME280;22716;51.556;5.080;2023-05-08T11:30:53;101409.66;;;20.24;100.00
36748;BME280;22716;51.556;5.080;2023-05-08T11:33:29;101409.66;;;20.24;100.00
36748;BME280;22716;51.556;5.080;2023-05-08T11:35:59;101417.44;;;20.29;100.00
36748;BME280;22716;51.556;5.080;2023-05-08T11:38:31;101409.44;;;20.30;100.00
36748;BME280;22716;51.556;5.080;2023-05-08T11:41:05;101416.91;;;20.42;100.00
36748;BME280;22716;51.556;5.080;2023-05-08T11:46:42;101412.13;;;20.50;100.00
36748;BME280;22716;51.556;5.080;2023-05-08T11:49:13;101422.75;;;20.50;100.00
36748;BME280;22716;51.556;5.080;2023-05-08T11:51:44;101411.97;;;20.53;100.00
36748;BME280;22716;51.556;5.080;2023-05-08T11:54:15;101404.59;;;20.60;100.00
36748;BME280;22716;51.556;5.080;2023-05-08T11:56:45;101397.53;;;20.59;100.00
36748;BME280;22716;51.556;5.080;2023-05-08T11:59:16;101395.09;;;20.54;100.00
36748;BME280;22716;51.556;5.080;2023-05-08T12:01:50;101398.66;;;20.53;100.00
36748;BME280;22716;51.556;5.080;2023-05-08T12:04:20;101395.34;;;20.48;100.00
36748;BME280;22716;51.556;5.080;2023-05-08T12:06:48;101393.88;;;20.41;100.00
36748;BME280;22716;51.556;5.080;2023-05-08T12:09:18;101396.22;;;20.49;100.00
36748;BME280;22716;51.556;5.080;2023-05-08T12:11:55;101398.19;;;20.44;100.00
36748;BME280;22716;51.556;5.080;2023-05-08T12:14:24;101388.38;;;20.46;100.00
36748;BME280;22716;51.556;5.080;2023-05-08T12:16:56;101398.94;;;20.47;100.00
36748;BME280;22716;51.556;5.080;2023-05-08T12:19:25;101396.66;;;20.38;100.00
36748;BME280;22716;51.556;5.080;2023-05-08T12:21:55;101391.94;;;20.45;100.00
36748;BME280;22716;51.556;5.080;2023-05-08T12:24:24;101393.00;;;20.61;100.00
36748;BME280;22716;51.556;5.080;2023-05-08T12:26:54;101374.19;;;20.65;100.00
36748;BME280;22716;51.556;5.080;2023-05-08T12:29:23;101392.06;;;20.82;100.00
36748;BME280;22716;51.556;5.080;2023-05-08T12:31:56;101391.88;;;21.07;100.00
36748;BME280;22716;51.556;5.080;2023-05-08T12:34:25;101378.53;;;21.07;100.00
36748;BME280;22716;51.556;5.080;2023-05-08T12:37:02;101391.44;;;21.36;100.00
36748;BME280;22716;51.556;5.080;2023-05-08T12:39:34;101393.00;;;21.59;100.00
36748;BME280;22716;51.556;5.080;2023-05-08T12:42:05;101383.50;;;21.53;100.00
36748;BME280;22716;51.556;5.080;2023-05-08T12:44:34;101376.38;;;21.54;99.52
36748;BME280;22716;51.556;5.080;2023-05-08T12:47:05;101377.66;;;21.64;99.26
36748;BME280;22716;51.556;5.080;2023-05-08T12:49:37;101382.72;;;21.89;98.81
36748;BME280;22716;51.556;5.080;2023-05-08T12:52:07;101378.09;;;21.92;99.00
36748;BME280;22716;51.556;5.080;2023-05-08T12:54:39;101373.47;;;21.96;98.24
36748;BME280;22716;51.556;5.080;2023-05-08T12:57:10;101369.78;;;21.98;98.31
36748;BME280;22716;51.556;5.080;2023-05-08T12:59:39;101369.34;;;22.07;98.10
36748;BME280;22716;51.556;5.080;2023-05-08T13:02:16;101362.28;;;22.06;98.60
36748;BME280;22716;51.556;5.080;2023-05-08T13:04:46;101360.94;;;22.15;98.33
36748;BME280;22716;51.556;5.080;2023-05-08T13:07:16;101362.56;;;22.00;98.79
36748;BME280;22716;51.556;5.080;2023-05-08T13:09:58;101348.59;;;21.95;97.84
36748;BME280;22716;51.556;5.080;2023-05-08T13:12:28;101364.94;;;22.06;97.48